Time;durP1;ratioP1;P1;durP2;ratioP2;P2;SDS_P1;SDS_P2;PMS_P1;PMS_P2;Temp;Humidity;BMP_temperature;BMP_pressure;BME280_temperature;BME280_humidity;BME280_pressure;Samples;Min_cycle;Max_cycle;Signal;HPM_P1;HPM_P2
2022/12/15 00:42:28;;;;;;;22.20;18.40;;;3.10;42.30;;;;;;10304083;28;20239;-73
2022/12/15 00:47:33;;;;;;;20.03;17.30;;;3.10;42.50;;;;;;10309250;28;20230;-70
2022/12/15 01:24:46;;;;;;;17.57;15.57;;;3.30;42.80;;;;;;10309683;28;20223;-68
2022/12/15 01:29:50;;;;;;;18.07;16.13;;;3.30;42.80;;;;;;10303267;28;20631;-70
2022/12/15 01:34:54;;;;;;;20.83;17.13;;;3.30;42.70;;;;;;10313124;28;20226;-70
2022/12/15 01:45:50;;;;;;;17.73;15.60;;;3.40;42.60;;;;;;10280692;28;20242;-70
2022/12/15 01:51:04;;;;;;;18.00;15.70;;;3.40;42.90;;;;;;10308170;28;20711;-70
2022/12/15 01:56:09;;;;;;;20.17;17.07;;;3.50;42.60;;;;;;10306817;28;20703;-70
2022/12/15 02:01:14;;;;;;;17.50;15.60;;;3.40;42.40;;;;;;10306411;28;20231;-74
2022/12/15 02:06:20;;;;;;;18.77;16.33;;;3.40;42.40;;;;;;10306327;28;20227;-73
2022/12/15 02:11:59;;;;;;;20.27;16.80;;;3.40;42.40;;;;;;10307068;28;20590;-70
2022/12/15 02:17:14;;;;;;;19.63;16.90;;;3.40;42.50;;;;;;10306818;28;20247;-72
2022/12/15 02:22:27;;;;;;;19.43;16.57;;;3.50;42.40;;;;;;10304987;28;20231;-69
2022/12/15 02:27:55;;;;;;;17.93;16.03;;;3.40;42.20;;;;;;10308637;28;20869;-73
2022/12/15 02:33:15;;;;;;;20.67;15.97;;;3.40;42.30;;;;;;10305057;28;20238;-74
2022/12/15 02:38:29;;;;;;;17.00;15.13;;;3.30;42.10;;;;;;10302237;28;20738;-74
2022/12/15 02:43:37;;;;;;;19.17;16.00;;;3.20;42.10;;;;;;10300619;28;20234;-70
2022/12/15 02:48:55;;;;;;;19.20;16.63;;;3.20;42.00;;;;;;10305053;28;20337;-73
2022/12/15 02:54:23;;;;;;;20.23;17.17;;;3.20;42.20;;;;;;10302700;28;20753;-67
2022/12/15 02:59:38;;;;;;;20.17;17.17;;;3.20;42.10;;;;;;10307066;28;20231;-67
2022/12/15 03:04:44;;;;;;;19.83;17.67;;;3.10;41.90;;;;;;10304391;28;20242;-67
2022/12/15 03:09:47;;;;;;;21.03;18.23;;;3.10;41.90;;;;;;10303391;28;20231;-67
2022/12/15 03:14:50;;;;;;;21.83;17.40;;;3.00;41.60;;;;;;10303557;28;20232;-67
2022/12/15 03:19:55;;;;;;;20.50;17.10;;;3.00;41.80;;;;;;10309118;28;20708;-67
2022/12/15 03:24:58;;;;;;;21.00;17.90;;;3.00;42.10;;;;;;10306579;28;20261;-67
2022/12/15 03:30:01;;;;;;;22.23;18.00;;;2.90;42.10;;;;;;10311855;28;20226;-67
2022/12/15 03:35:07;;;;;;;21.13;16.70;;;2.90;42.20;;;;;;10315780;28;20230;-67
2022/12/15 03:40:12;;;;;;;21.00;18.00;;;3.00;42.20;;;;;;10307579;28;20235;-68
2022/12/15 03:45:16;;;;;;;20.27;17.57;;;3.00;42.20;;;;;;10313839;28;20258;-68
2022/12/15 03:50:23;;;;;;;20.27;16.67;;;3.00;42.20;;;;;;10311555;28;20236;-68
2022/12/15 03:55:28;;;;;;;19.27;16.70;;;3.00;42.40;;;;;;10309024;28;20242;-68
2022/12/15 04:00:31;;;;;;;22.77;18.20;;;3.00;42.30;;;;;;10307146;28;20238;-68
2022/12/15 04:05:36;;;;;;;22.83;18.77;;;3.10;42.30;;;;;;10308575;28;20231;-68
2022/12/15 04:10:39;;;;;;;21.37;17.00;;;3.00;42.20;;;;;;10313262;28;20227;-67
2022/12/15 04:15:42;;;;;;;22.97;18.20;;;3.00;42.20;;;;;;10304982;28;20587;-68
2022/12/15 04:20:46;;;;;;;24.93;18.97;;;3.00;42.20;;;;;;10310003;28;20277;-67
2022/12/15 05:35:33;;;;;;;26.07;20.23;;;2.80;41.90;;;;;;10313183;28;20763;-68
2022/12/15 05:40:37;;;;;;;26.90;20.60;;;2.80;41.90;;;;;;10302906;28;20226;-68
2022/12/15 05:45:40;;;;;;;25.57;19.63;;;2.70;41.90;;;;;;10306852;28;20257;-68
2022/12/15 05:50:43;;;;;;;25.80;20.03;;;2.70;41.90;;;;;;10305292;28;20953;-68
2022/12/15 05:55:48;;;;;;;27.33;20.97;;;2.80;42.00;;;;;;10306597;28;20235;-68
2022/12/15 06:00:51;;;;;;;27.73;21.53;;;2.80;42.10;;;;;;10307639;28;20234;-68
2022/12/15 06:05:54;;;;;;;27.83;20.83;;;2.70;42.00;;;;;;10305959;28;20231;-67
2022/12/15 06:11:00;;;;;;;26.40;19.80;;;2.70;41.90;;;;;;10311140;28;20747;-69
2022/12/15 06:16:06;;;;;;;29.70;22.37;;;2.80;42.10;;;;;;10302830;28;20234;-68
2022/12/15 06:21:12;;;;;;;26.87;20.00;;;2.70;42.00;;;;;;10305219;28;20289;-69
2022/12/15 06:26:20;;;;;;;25.43;19.07;;;2.70;42.80;;;;;;10299242;28;20235;-69
2022/12/15 06:31:24;;;;;;;24.87;20.13;;;2.80;43.30;;;;;;10301410;28;20234;-69
2022/12/15 06:36:29;;;;;;;27.40;20.80;;;2.80;42.80;;;;;;10300330;28;20238;-69
2022/12/15 06:41:34;;;;;;;27.53;21.20;;;2.80;42.50;;;;;;10308466;28;20227;-73
2022/12/15 06:46:37;;;;;;;26.77;20.47;;;2.90;42.50;;;;;;10305184;28;20234;-67
2022/12/15 06:51:42;;;;;;;28.63;21.43;;;2.90;42.30;;;;;;10306635;28;20254;-67
2022/12/15 06:56:47;;;;;;;25.40;19.40;;;2.90;42.20;;;;;;10303979;28;20231;-67
2022/12/15 07:01:52;;;;;;;27.40;20.33;;;2.90;42.30;;;;;;10311033;28;20313;-69
2022/12/15 07:06:55;;;;;;;27.23;20.73;;;2.90;42.10;;;;;;10307501;28;20227;-69
2022/12/15 07:12:00;;;;;;;26.20;21.23;;;2.90;42.00;;;;;;10308691;28;20627;-69
2022/12/15 07:17:03;;;;;;;25.37;20.50;;;2.80;42.00;;;;;;10308765;28;20222;-69
2022/12/15 07:22:06;;;;;;;25.53;20.23;;;2.80;42.10;;;;;;10296364;28;20239;-68
2022/12/15 07:27:11;;;;;;;25.70;20.13;;;2.80;42.20;;;;;;10299367;28;20738;-69
2022/12/15 07:32:14;;;;;;;23.53;18.93;;;2.80;42.30;;;;;;10304482;28;20237;-67
2022/12/15 07:37:18;;;;;;;21.87;18.20;;;2.80;42.30;;;;;;10297648;28;20468;-68
2022/12/15 07:42:22;;;;;;;25.47;19.60;;;2.80;42.30;;;;;;10301561;28;20235;-67
2022/12/15 07:47:26;;;;;;;31.33;23.37;;;2.90;42.50;;;;;;10302757;28;20223;-68
2022/12/15 07:52:29;;;;;;;24.47;19.37;;;2.90;42.40;;;;;;10302603;28;20323;-67
2022/12/15 07:57:34;;;;;;;21.37;16.70;;;2.90;42.30;;;;;;10298407;28;20634;-67
2022/12/15 08:02:37;;;;;;;27.97;20.30;;;3.00;42.40;;;;;;10300668;28;20227;-69
2022/12/15 08:07:40;;;;;;;25.47;20.43;;;3.00;42.40;;;;;;10298838;28;20319;-68
2022/12/15 08:12:45;;;;;;;25.90;20.37;;;3.00;42.50;;;;;;10309072;28;20242;-69
2022/12/15 08:17:48;;;;;;;27.77;20.30;;;3.10;42.50;;;;;;10308019;28;20242;-69
2022/12/15 08:22:51;;;;;;;26.13;20.23;;;3.10;42.30;;;;;;10309386;28;20631;-69
2022/12/15 08:27:56;;;;;;;25.30;20.40;;;3.10;42.30;;;;;;10306124;28;20274;-73
2022/12/15 08:32:59;;;;;;;27.00;21.73;;;3.10;42.20;;;;;;10316651;28;20227;-73
2022/12/15 08:38:02;;;;;;;27.87;20.87;;;3.10;42.20;;;;;;10309037;28;20253;-68
2022/12/15 08:43:09;;;;;;;28.93;22.17;;;3.10;42.10;;;;;;10307087;28;20227;-73
2022/12/15 08:48:12;;;;;;;29.27;22.67;;;3.10;42.10;;;;;;10311588;28;20219;-73
2022/12/15 08:53:15;;;;;;;31.07;21.63;;;3.10;42.20;;;;;;10307699;28;20242;-73
2022/12/15 08:58:36;;;;;;;29.03;22.67;;;3.10;42.20;;;;;;10309939;28;20245;-74
2022/12/15 09:03:39;;;;;;;33.50;23.33;;;3.20;42.30;;;;;;10313864;28;20242;-74
2022/12/15 09:08:42;;;;;;;32.90;24.73;;;3.30;42.30;;;;;;10305552;28;20242;-73
2022/12/15 09:13:51;;;;;;;28.70;22.23;;;3.30;42.20;;;;;;10310202;28;20231;-74
2022/12/15 09:18:56;;;;;;;29.43;22.70;;;3.40;42.20;;;;;;10303050;28;20232;-73
2022/12/15 09:24:01;;;;;;;27.03;21.83;;;3.30;42.00;;;;;;10311287;28;20718;-74
2022/12/15 09:29:06;;;;;;;29.17;21.73;;;3.30;42.00;;;;;;10306670;28;20216;-74
2022/12/15 09:34:14;;;;;;;27.73;21.37;;;3.30;42.10;;;;;;10309013;28;20241;-73
2022/12/15 09:39:18;;;;;;;26.37;20.97;;;3.40;42.20;;;;;;10307543;28;20228;-74
2022/12/15 09:44:24;;;;;;;27.83;21.50;;;3.50;42.10;;;;;;10308394;28;20230;-73
2022/12/15 09:49:41;;;;;;;29.13;21.93;;;3.50;41.90;;;;;;10303191;28;20235;-73
2022/12/15 09:54:46;;;;;;;28.93;22.13;;;3.50;42.00;;;;;;10306000;28;20226;-71
2022/12/15 10:00:05;;;;;;;26.87;19.93;;;3.50;41.90;;;;;;10304268;28;20236;-73
2022/12/15 10:05:32;;;;;;;27.97;20.87;;;3.60;45.00;;;;;;10303794;28;20229;-77
2022/12/15 10:10:58;;;;;;;26.53;20.60;;;3.90;46.70;;;;;;10312599;28;20307;-73
2022/12/15 10:16:08;;;;;;;27.33;22.50;;;4.20;44.10;;;;;;10304002;28;20239;-74
2022/12/15 10:21:13;;;;;;;23.67;19.83;;;4.40;43.10;;;;;;10307496;28;20225;-73
2022/12/15 10:26:20;;;;;;;26.77;21.50;;;4.50;42.80;;;;;;10306771;28;20572;-74
2022/12/15 10:31:31;;;;;;;27.50;22.80;;;4.50;42.40;;;;;;10304179;28;20298;-73
2022/12/15 10:36:34;;;;;;;28.77;22.10;;;4.50;42.00;;;;;;10303489;28;20305;-73
2022/12/15 10:41:37;;;;;;;25.03;20.10;;;4.50;41.90;;;;;;10304433;28;20250;-73
2022/12/15 10:46:45;;;;;;;26.23;20.97;;;4.50;41.80;;;;;;10305684;28;20238;-73
2022/12/15 10:51:54;;;;;;;24.43;20.70;;;4.40;41.30;;;;;;10301481;28;20227;-73
2022/12/15 10:56:59;;;;;;;26.10;20.80;;;4.40;41.50;;;;;;10310763;28;20234;-73
2022/12/15 11:02:31;;;;;;;26.30;20.47;;;4.30;41.50;;;;;;10308827;28;20230;-72
2022/12/15 11:07:38;;;;;;;22.83;19.40;;;4.30;41.30;;;;;;10305972;28;20243;-73
2022/12/15 11:12:51;;;;;;;28.03;22.70;;;4.50;41.80;;;;;;10302551;28;20791;-73
2022/12/15 11:18:11;;;;;;;28.97;22.67;;;4.30;41.70;;;;;;10305314;28;20246;-73
2022/12/15 11:23:21;;;;;;;28.43;22.77;;;4.30;41.80;;;;;;10301823;28;20238;-72
2022/12/15 11:28:32;;;;;;;29.80;23.70;;;4.40;41.60;;;;;;10305647;28;20286;-72
2022/12/15 11:33:39;;;;;;;26.17;20.63;;;4.40;41.50;;;;;;10300277;28;20285;-73
2022/12/15 11:38:49;;;;;;;23.10;17.93;;;4.40;41.60;;;;;;10303264;28;20285;-66
2022/12/15 11:44:07;;;;;;;28.67;21.47;;;4.40;42.90;;;;;;10305766;28;20713;-69
2022/12/15 11:49:35;;;;;;;26.90;20.80;;;4.40;42.70;;;;;;10311686;28;20219;-69
2022/12/15 11:54:48;;;;;;;26.00;20.53;;;4.50;42.00;;;;;;10308800;28;20227;-68
2022/12/15 12:00:02;;;;;;;28.17;21.73;;;4.60;44.00;;;;;;10306382;28;20250;-69
2022/12/15 12:05:29;;;;;;;25.80;20.90;;;4.70;42.50;;;;;;10304016;28;20786;-69
2022/12/15 12:10:40;;;;;;;27.10;22.27;;;4.80;41.80;;;;;;10308351;28;20730;-68
2022/12/15 12:15:54;;;;;;;27.33;21.70;;;4.80;41.70;;;;;;10308478;28;20250;-68
2022/12/15 12:21:05;;;;;;;26.33;21.73;;;4.80;41.50;;;;;;10308280;28;20238;-68
2022/12/15 12:26:15;;;;;;;27.43;21.63;;;4.80;41.50;;;;;;10306524;28;20738;-68
2022/12/15 12:31:27;;;;;;;28.43;22.43;;;4.80;41.50;;;;;;10306620;28;20231;-68
2022/12/15 12:36:31;;;;;;;27.17;21.20;;;4.70;41.30;;;;;;10306198;28;20231;-68
2022/12/15 12:41:41;;;;;;;26.93;20.73;;;4.70;41.60;;;;;;10309108;28;20231;-68
2022/12/15 12:46:49;;;;;;;27.20;20.13;;;4.70;41.50;;;;;;10308926;28;20769;-68
2022/12/15 12:51:57;;;;;;;24.83;19.63;;;4.70;41.50;;;;;;10307001;28;20229;-68
2022/12/15 12:57:00;;;;;;;25.60;20.87;;;4.70;41.30;;;;;;10305828;28;20715;-68
2022/12/15 13:02:45;;;;;;;27.40;20.93;;;4.60;41.40;;;;;;10307329;28;20232;-68
2022/12/15 13:07:55;;;;;;;27.33;19.53;;;4.60;41.10;;;;;;10307854;28;20596;-68
2022/12/15 13:13:15;;;;;;;23.50;19.07;;;4.50;41.10;;;;;;10311381;28;20742;-68
2022/12/15 13:18:21;;;;;;;25.30;20.90;;;4.50;41.30;;;;;;10306972;28;20234;-68
2022/12/15 13:23:41;;;;;;;26.73;21.83;;;4.40;41.30;;;;;;10305639;28;20234;-68
2022/12/15 13:28:49;;;;;;;26.37;21.13;;;4.40;41.20;;;;;;10309965;28;20231;-68
2022/12/15 13:33:58;;;;;;;24.80;19.97;;;4.30;41.30;;;;;;10308676;28;20254;-68
2022/12/15 13:39:05;;;;;;;28.60;22.60;;;4.30;41.60;;;;;;10302546;28;20223;-68
2022/12/15 13:44:15;;;;;;;26.50;21.93;;;4.30;41.70;;;;;;10305325;28;20302;-68
2022/12/15 13:49:26;;;;;;;26.83;22.90;;;4.30;41.70;;;;;;10307449;28;20718;-68
2022/12/15 13:54:34;;;;;;;29.60;22.37;;;4.30;41.80;;;;;;10308406;28;20243;-68
2022/12/15 13:59:45;;;;;;;27.23;22.17;;;4.40;41.90;;;;;;10307111;28;20230;-68
2022/12/15 14:05:11;;;;;;;29.23;22.83;;;4.30;41.90;;;;;;10300201;28;20826;-68
2022/12/15 14:10:22;;;;;;;27.90;21.87;;;4.40;42.10;;;;;;10306218;28;20619;-68
2022/12/15 14:15:28;;;;;;;27.10;21.30;;;4.40;42.20;;;;;;10307428;28;20234;-68
2022/12/15 14:20:40;;;;;;;28.97;22.73;;;4.40;42.20;;;;;;10301916;28;20235;-68
2022/12/15 14:25:53;;;;;;;24.87;21.27;;;4.40;42.10;;;;;;10308229;28;20242;-68
2022/12/15 14:30:59;;;;;;;27.57;21.17;;;4.40;41.90;;;;;;10305969;28;20226;-68
2022/12/15 14:36:07;;;;;;;27.23;22.43;;;4.40;42.50;;;;;;10301563;28;20223;-68
2022/12/15 14:41:20;;;;;;;27.47;22.50;;;4.40;41.70;;;;;;10304377;28;20232;-68
2022/12/15 14:46:26;;;;;;;27.23;22.53;;;4.40;41.70;;;;;;10298561;28;20231;-68
2022/12/15 14:51:32;;;;;;;26.93;22.07;;;4.40;41.70;;;;;;10303221;28;20238;-68
2022/12/15 14:56:36;;;;;;;27.33;22.33;;;4.30;41.80;;;;;;10307982;28;20238;-68
2022/12/15 15:01:49;;;;;;;25.10;20.67;;;4.30;42.00;;;;;;10306422;28;20222;-68
2022/12/15 15:07:02;;;;;;;25.23;21.67;;;4.30;42.10;;;;;;10301831;28;20273;-68
2022/12/15 15:12:08;;;;;;;28.37;22.87;;;4.30;42.20;;;;;;10307602;28;20227;-68
2022/12/15 15:17:25;;;;;;;26.73;22.67;;;4.30;42.20;;;;;;10304602;28;20238;-68
2022/12/15 15:22:38;;;;;;;26.17;21.50;;;4.30;42.20;;;;;;10310742;28;20738;-68
2022/12/15 15:27:43;;;;;;;28.53;21.50;;;4.30;42.20;;;;;;10313922;28;20231;-69
2022/12/15 15:32:54;;;;;;;28.30;22.93;;;4.30;42.20;;;;;;10305635;28;20230;-69
2022/12/15 15:38:02;;;;;;;30.77;24.10;;;4.30;42.20;;;;;;10308054;28;20234;-69
2022/12/15 15:43:11;;;;;;;28.20;21.70;;;4.30;42.20;;;;;;10306595;28;20226;-69
2022/12/15 15:48:20;;;;;;;28.53;22.70;;;4.30;42.10;;;;;;10307132;28;20234;-69
2022/12/15 15:53:24;;;;;;;24.83;21.20;;;4.30;42.20;;;;;;10308718;28;20235;-69
2022/12/15 15:58:29;;;;;;;28.93;23.63;;;4.30;42.20;;;;;;10317145;28;20234;-67
2022/12/15 16:03:34;;;;;;;27.97;22.83;;;4.40;42.20;;;;;;10312467;28;20226;-69
2022/12/15 16:08:38;;;;;;;25.93;21.47;;;4.20;41.90;;;;;;10310380;28;20309;-73
2022/12/15 16:13:43;;;;;;;27.97;23.33;;;4.20;41.80;;;;;;10312725;28;20230;-68
2022/12/15 16:18:46;;;;;;;29.83;22.67;;;4.10;41.90;;;;;;10301315;28;20234;-68
2022/12/15 16:23:50;;;;;;;28.17;23.23;;;4.00;41.90;;;;;;10309908;28;20226;-68
2022/12/15 16:28:55;;;;;;;25.97;21.47;;;4.00;41.90;;;;;;10307318;28;20270;-68
2022/12/15 16:33:58;;;;;;;30.20;23.60;;;3.90;41.80;;;;;;10305772;28;20238;-68
2022/12/15 16:39:01;;;;;;;28.47;23.27;;;3.90;41.80;;;;;;10318793;28;20273;-72
2022/12/15 16:44:11;;;;;;;25.23;19.77;;;4.00;41.90;;;;;;10309038;28;20785;-73
2022/12/15 16:49:14;;;;;;;27.70;23.40;;;3.90;43.50;;;;;;10320276;28;20230;-72
2022/12/15 16:54:22;;;;;;;26.53;21.67;;;4.00;42.70;;;;;;10320559;28;20230;-72
2022/12/15 16:59:26;;;;;;;28.00;21.93;;;4.00;42.60;;;;;;10306882;28;20696;-67
2022/12/15 17:04:38;;;;;;;28.57;22.87;;;4.00;42.30;;;;;;10306115;28;20325;-67
2022/12/15 17:09:41;;;;;;;26.87;22.10;;;4.00;42.10;;;;;;10307877;28;20286;-67
2022/12/15 17:14:46;;;;;;;25.77;21.63;;;4.00;42.10;;;;;;10307755;28;20273;-67
2022/12/15 17:19:50;;;;;;;25.83;21.40;;;4.00;42.20;;;;;;10305556;28;20223;-67
2022/12/15 17:25:17;;;;;;;26.23;22.13;;;4.10;42.30;;;;;;10304041;28;20770;-67
2022/12/15 17:30:42;;;;;;;26.10;21.77;;;4.00;42.20;;;;;;10309436;28;20262;-67
2022/12/15 17:35:46;;;;;;;28.93;22.73;;;4.00;41.90;;;;;;10308910;28;20598;-67
2022/12/15 17:40:51;;;;;;;24.03;21.40;;;4.00;41.90;;;;;;10307628;28;20223;-67
2022/12/15 17:45:55;;;;;;;26.60;22.47;;;4.20;42.10;;;;;;10307624;28;20266;-67
2022/12/15 17:50:58;;;;;;;29.63;23.03;;;4.00;41.90;;;;;;10307819;28;20247;-67
2022/12/15 17:56:02;;;;;;;27.70;21.40;;;4.10;42.00;;;;;;10306578;28;20231;-70
2022/12/15 18:01:06;;;;;;;29.23;22.40;;;3.90;41.80;;;;;;10309079;28;20228;-67
2022/12/15 18:06:13;;;;;;;30.13;22.87;;;3.90;41.80;;;;;;10303957;28;20231;-67
2022/12/15 18:11:17;;;;;;;27.67;22.13;;;3.90;41.90;;;;;;10303857;28;20218;-67
2022/12/15 18:16:21;;;;;;;25.77;20.80;;;3.80;41.90;;;;;;10304462;28;20866;-67
2022/12/15 18:21:25;;;;;;;27.23;21.80;;;3.90;42.20;;;;;;10307902;28;20238;-74
2022/12/15 18:26:30;;;;;;;26.50;20.90;;;3.80;42.20;;;;;;10303288;28;20239;-70
2022/12/15 18:31:35;;;;;;;25.93;20.97;;;3.80;42.20;;;;;;10297747;28;20223;-70
2022/12/15 18:36:38;;;;;;;26.87;21.50;;;3.80;42.30;;;;;;10302027;28;20953;-70
2022/12/15 18:41:41;;;;;;;26.63;21.20;;;3.80;42.30;;;;;;10305219;28;20713;-70
2022/12/15 18:46:46;;;;;;;25.87;22.33;;;3.80;42.30;;;;;;10318062;28;20235;-74
2022/12/15 18:51:50;;;;;;;27.73;21.70;;;3.90;42.40;;;;;;10316039;28;20223;-73
2022/12/15 18:56:53;;;;;;;27.17;20.67;;;3.80;42.20;;;;;;10319909;28;20227;-73
2022/12/15 19:01:58;;;;;;;25.40;20.53;;;3.90;42.20;;;;;;10305954;28;20231;-67
2022/12/15 19:07:05;;;;;;;24.70;20.50;;;3.90;42.20;;;;;;10303052;28;20249;-67
2022/12/15 19:12:20;;;;;;;25.70;21.17;;;3.90;42.30;;;;;;10301222;28;20239;-68
2022/12/15 19:22:48;;;;;;;24.57;20.30;;;3.80;42.20;;;;;;10285724;28;20230;-67
2022/12/15 19:27:57;;;;;;;27.90;22.03;;;3.80;42.20;;;;;;10304989;28;20227;-67
2022/12/15 19:33:01;;;;;;;26.73;20.50;;;3.80;42.30;;;;;;10305821;28;20234;-67
2022/12/15 19:38:05;;;;;;;28.30;22.07;;;3.90;42.40;;;;;;10301200;28;20235;-68
2022/12/15 19:43:14;;;;;;;27.90;22.13;;;3.80;42.30;;;;;;10301356;28;20227;-68
2022/12/15 19:48:19;;;;;;;23.37;19.93;;;3.80;42.50;;;;;;10301110;28;20234;-69
2022/12/15 19:53:28;;;;;;;24.50;20.03;;;3.90;42.50;;;;;;10308692;28;20239;-69
2022/12/15 19:58:33;;;;;;;27.10;21.30;;;3.80;42.40;;;;;;10302556;28;20219;-70
2022/12/15 20:03:38;;;;;;;26.00;20.37;;;3.80;42.50;;;;;;10302538;28;20227;-69
2022/12/15 20:08:44;;;;;;;25.37;20.00;;;3.80;42.50;;;;;;10310020;28;20319;-73
2022/12/15 20:13:49;;;;;;;25.87;19.87;;;3.70;42.40;;;;;;10313554;28;20273;-69
2022/12/15 20:18:55;;;;;;;23.10;19.63;;;3.90;42.60;;;;;;10312063;28;20315;-70
2022/12/15 20:24:01;;;;;;;24.27;18.63;;;3.80;42.60;;;;;;10312784;28;20223;-70
2022/12/15 20:29:04;;;;;;;23.23;18.40;;;3.70;42.50;;;;;;10308583;28;20223;-70
2022/12/15 20:34:09;;;;;;;24.80;19.73;;;3.80;42.50;;;;;;10306891;28;20604;-70
2022/12/15 20:39:19;;;;;;;25.47;19.80;;;3.80;42.60;;;;;;10305362;28;20251;-70
2022/12/15 20:44:24;;;;;;;24.43;19.70;;;3.70;42.90;;;;;;10301676;28;20231;-70
2022/12/15 20:49:28;;;;;;;26.03;21.40;;;3.80;42.80;;;;;;10306985;28;20227;-68
2022/12/15 20:54:32;;;;;;;23.67;19.47;;;3.80;42.90;;;;;;10309849;28;20238;-68
2022/12/15 20:59:35;;;;;;;26.27;21.63;;;3.80;42.70;;;;;;10304073;28;20235;-70
2022/12/15 21:04:39;;;;;;;25.07;20.13;;;3.80;42.70;;;;;;10307718;28;20258;-70
2022/12/15 21:09:42;;;;;;;26.77;20.27;;;3.80;42.70;;;;;;10303090;28;20227;-70
2022/12/15 21:14:46;;;;;;;26.27;20.87;;;3.80;42.70;;;;;;10303405;28;20222;-69
2022/12/15 21:19:50;;;;;;;28.30;21.40;;;3.80;42.80;;;;;;10301195;28;20220;-68
2022/12/15 21:24:55;;;;;;;29.00;21.00;;;3.80;43.00;;;;;;10300638;28;20257;-69
2022/12/15 21:29:58;;;;;;;25.73;19.70;;;3.80;42.90;;;;;;10304488;28;20227;-70
2022/12/15 21:35:03;;;;;;;24.63;19.77;;;3.80;42.90;;;;;;10299468;28;20226;-69
2022/12/15 21:40:08;;;;;;;23.17;19.73;;;3.80;42.90;;;;;;10302301;28;20250;-70
2022/12/15 21:45:16;;;;;;;24.20;19.87;;;3.80;43.00;;;;;;10304075;28;20614;-70
2022/12/15 21:50:21;;;;;;;26.97;20.70;;;3.70;43.10;;;;;;10306526;28;20229;-73
2022/12/15 21:55:27;;;;;;;26.27;19.83;;;3.70;43.00;;;;;;10302652;28;20254;-69
2022/12/15 22:00:30;;;;;;;22.93;18.67;;;3.70;43.10;;;;;;10302819;28;20722;-70
2022/12/15 22:05:34;;;;;;;21.47;17.93;;;3.70;43.10;;;;;;10300157;28;20685;-70
2022/12/15 22:10:38;;;;;;;23.90;19.93;;;3.80;43.30;;;;;;10309791;28;20976;-68
2022/12/15 22:15:41;;;;;;;24.20;19.60;;;3.70;43.10;;;;;;10301283;28;20738;-73
2022/12/15 22:20:48;;;;;;;22.83;19.23;;;3.80;43.30;;;;;;10308647;28;20231;-70
2022/12/15 22:25:55;;;;;;;22.97;19.53;;;3.80;43.30;;;;;;10298184;28;20231;-70
2022/12/15 22:30:58;;;;;;;22.57;19.47;;;3.90;43.50;;;;;;10303142;28;20224;-69
2022/12/15 22:36:03;;;;;;;24.20;19.37;;;3.80;43.30;;;;;;10302140;28;20234;-69
2022/12/15 22:41:10;;;;;;;23.10;19.40;;;3.80;43.30;;;;;;10298651;28;20235;-70
2022/12/15 22:46:14;;;;;;;24.43;20.03;;;4.00;43.50;;;;;;10309851;28;20227;-70
2022/12/15 22:51:19;;;;;;;22.77;19.33;;;3.80;43.40;;;;;;10311815;28;20277;-73
2022/12/15 22:56:26;;;;;;;26.47;20.90;;;3.90;43.50;;;;;;10320539;28;20691;-70
2022/12/15 23:01:29;;;;;;;25.30;19.77;;;3.80;43.40;;;;;;10303810;28;20230;-69
2022/12/15 23:06:34;;;;;;;24.87;19.70;;;3.80;43.40;;;;;;10298063;28;20234;-69
2022/12/15 23:11:37;;;;;;;23.63;19.60;;;4.00;43.60;;;;;;10304377;28;20222;-68
2022/12/15 23:16:41;;;;;;;24.30;19.73;;;3.80;44.00;;;;;;10308764;28;20223;-73
2022/12/15 23:21:46;;;;;;;22.87;19.07;;;3.80;43.30;;;;;;10319200;28;20568;-73
2022/12/15 23:26:49;;;;;;;24.77;20.00;;;3.80;43.50;;;;;;10323701;28;20219;-74
2022/12/15 23:31:53;;;;;;;23.47;19.17;;;3.70;43.30;;;;;;10318474;28;20890;-74
2022/12/15 23:36:58;;;;;;;22.90;18.73;;;3.70;43.40;;;;;;10320198;28;20231;-73
2022/12/15 23:42:01;;;;;;;23.47;18.60;;;3.70;43.60;;;;;;10326378;28;20280;-74
2022/12/15 23:47:04;;;;;;;23.03;19.03;;;3.60;43.50;;;;;;10329866;28;20322;-73
2022/12/15 23:52:10;;;;;;;23.23;18.30;;;3.60;43.50;;;;;;10333517;28;20754;-68
2022/12/15 23:57:13;;;;;;;24.93;19.27;;;3.60;43.60;;;;;;10314915;28;20250;-73
